Time;durP1;ratioP1;P1;durP2;ratioP2;P2;SDS_P1;SDS_P2;PMS_P1;PMS_P2;Temp;Humidity;BMP_temperature;BMP_pressure;BME280_temperature;BME280_humidity;BME280_pressure;Samples;Min_cycle;Max_cycle;Signal;HPM_P1;HPM_P2
2021/12/11 00:02:06;;;;;;;23.67;14.45;;;1.80;99.90;;;;;;5015571;28;20437;-62
2021/12/11 00:04:35;;;;;;;21.13;15.35;;;1.60;99.90;;;;;;5014150;28;20037;-62
2021/12/11 00:07:06;;;;;;;22.35;14.88;;;1.50;99.90;;;;;;5015361;28;20033;-62
2021/12/11 00:09:54;;;;;;;24.05;15.30;;;1.70;99.90;;;;;;5016241;28;20045;-61
2021/12/11 00:12:33;;;;;;;20.88;15.52;;;1.70;99.90;;;;;;5016209;28;20401;-61
2021/12/11 00:15:05;;;;;;;24.58;15.63;;;1.80;99.90;;;;;;5010055;28;20813;-61
2021/12/11 00:17:32;;;;;;;25.17;16.23;;;1.90;99.90;;;;;;5015218;28;20041;-61
2021/12/11 00:19:58;;;;;;;26.17;16.60;;;1.70;99.90;;;;;;5014882;28;20492;-62
2021/12/11 00:22:28;;;;;;;27.73;15.50;;;1.80;99.90;;;;;;5015005;28;20044;-61
2021/12/11 00:25:05;;;;;;;24.30;15.40;;;1.70;99.90;;;;;;5006600;28;20399;-62
2021/12/11 00:27:33;;;;;;;24.70;15.48;;;1.60;99.90;;;;;;5014451;28;20385;-61
2021/12/11 00:29:59;;;;;;;25.25;15.73;;;1.60;99.90;;;;;;5014265;28;20038;-63
2021/12/11 00:32:29;;;;;;;24.20;15.85;;;1.50;99.90;;;;;;5010265;28;21026;-62
2021/12/11 00:35:20;;;;;;;21.42;15.07;;;1.60;99.90;;;;;;5009745;28;20049;-62
2021/12/11 00:37:47;;;;;;;24.20;15.40;;;1.50;99.90;;;;;;5016680;28;20042;-61
2021/12/11 00:40:26;;;;;;;22.58;16.38;;;1.50;99.90;;;;;;5010226;28;20528;-61
2021/12/11 00:42:58;;;;;;;23.95;17.23;;;1.50;99.90;;;;;;5008276;28;20039;-61
2021/12/11 00:45:28;;;;;;;20.65;14.13;;;1.70;99.90;;;;;;5017723;28;20045;-62
2021/12/11 00:47:57;;;;;;;29.58;17.95;;;1.90;99.90;;;;;;5013149;28;20348;-62
2021/12/11 00:50:34;;;;;;;25.00;16.90;;;2.00;99.90;;;;;;5012649;28;20025;-62
2021/12/11 00:53:21;;;;;;;26.63;17.15;;;1.80;99.90;;;;;;5013056;28;20526;-62
2021/12/11 00:55:52;;;;;;;27.90;17.85;;;1.80;99.90;;;;;;5011881;28;20041;-62
2021/12/11 00:58:19;;;;;;;30.67;18.48;;;1.90;99.90;;;;;;5016746;28;20060;-62
2021/12/11 01:00:54;;;;;;;28.05;18.08;;;1.90;99.90;;;;;;5016211;28;20041;-62
2021/12/11 01:03:24;;;;;;;25.50;17.58;;;1.80;99.90;;;;;;5019432;28;20099;-62
2021/12/11 01:05:54;;;;;;;26.35;16.73;;;1.70;99.90;;;;;;5016475;28;20045;-63
2021/12/11 01:08:27;;;;;;;24.42;17.10;;;1.70;99.90;;;;;;5014417;28;20052;-62
2021/12/11 01:11:30;;;;;;;24.90;16.92;;;1.60;99.90;;;;;;5010497;28;20030;-62
2021/12/11 01:14:10;;;;;;;23.73;17.17;;;1.50;99.90;;;;;;5005967;28;20041;-62
2021/12/11 01:16:38;;;;;;;23.00;16.20;;;1.40;99.90;;;;;;5010533;28;20033;-62
2021/12/11 01:19:06;;;;;;;23.92;16.13;;;1.30;99.90;;;;;;5015971;28;20116;-62
2021/12/11 01:24:11;;;;;;;23.88;15.82;;;1.40;99.90;;;;;;5011053;28;20093;-62
2021/12/11 01:26:45;;;;;;;24.48;16.67;;;1.50;99.90;;;;;;5009172;28;20491;-61
2021/12/11 01:29:12;;;;;;;29.05;17.25;;;1.40;99.90;;;;;;5009818;28;20045;-61
2021/12/11 01:31:38;;;;;;;25.30;15.48;;;1.30;99.90;;;;;;5008139;28;20040;-61
2021/12/11 01:34:04;;;;;;;26.42;17.05;;;1.30;99.90;;;;;;5014608;28;20037;-61
2021/12/11 01:36:32;;;;;;;24.73;16.08;;;1.60;99.90;;;;;;5013401;28;20456;-61
2021/12/11 01:39:00;;;;;;;25.45;16.67;;;1.40;99.90;;;;;;5013571;28;20132;-61
2021/12/11 01:41:28;;;;;;;24.52;16.80;;;1.30;99.90;;;;;;5006907;28;20104;-62
2021/12/11 01:43:57;;;;;;;23.30;15.82;;;1.30;99.90;;;;;;5018563;28;20084;-61
2021/12/11 01:46:25;;;;;;;21.75;16.13;;;1.20;99.90;;;;;;5011006;28;20568;-61
2021/12/11 01:48:58;;;;;;;23.10;16.38;;;1.20;99.90;;;;;;5009491;28;20041;-61
2021/12/11 01:51:35;;;;;;;;;;;1.20;99.90;;;;;;5008815;28;20080;-61
2021/12/11 01:54:13;;;;;;;22.70;15.68;;;1.20;99.90;;;;;;5022194;28;19917;-61
2021/12/11 01:56:46;;;;;;;26.38;16.52;;;1.40;99.90;;;;;;5016394;28;20034;-62
2021/12/11 01:59:21;;;;;;;25.23;16.33;;;1.40;99.90;;;;;;5013759;28;20046;-61
2021/12/11 02:02:02;;;;;;;24.33;16.67;;;1.50;99.90;;;;;;5027881;28;20094;-61
2021/12/11 02:04:28;;;;;;;23.70;16.38;;;1.40;99.90;;;;;;5019393;28;20451;-61
2021/12/11 02:06:55;;;;;;;27.35;16.90;;;1.40;99.90;;;;;;5025288;28;20349;-61
2021/12/11 02:09:30;;;;;;;25.40;17.02;;;1.40;99.90;;;;;;5019128;28;20126;-61
2021/12/11 02:12:10;;;;;;;27.80;16.63;;;1.50;99.90;;;;;;5019892;28;20697;-61
2021/12/11 02:14:41;;;;;;;24.42;17.35;;;1.50;99.90;;;;;;5022277;28;20041;-62
2021/12/11 02:17:18;;;;;;;26.63;17.42;;;1.50;99.90;;;;;;5015000;28;20041;-61
2021/12/11 02:19:45;;;;;;;26.30;17.23;;;1.50;99.90;;;;;;5023065;28;20033;-62
2021/12/11 02:22:15;;;;;;;28.10;18.17;;;1.60;99.90;;;;;;5022980;28;20095;-61
2021/12/11 02:24:48;;;;;;;29.88;18.60;;;1.50;99.90;;;;;;5014695;28;20764;-61
2021/12/11 02:27:20;;;;;;;29.80;18.27;;;1.70;99.90;;;;;;5017939;28;20066;-61
2021/12/11 02:29:54;;;;;;;28.42;18.15;;;1.80;99.90;;;;;;5023367;28;20557;-61
2021/12/11 02:32:32;;;;;;;27.90;17.33;;;1.70;99.90;;;;;;5020757;28;20040;-62
2021/12/11 02:35:08;;;;;;;28.83;17.38;;;1.60;99.90;;;;;;5019533;28;20049;-61
2021/12/11 02:37:45;;;;;;;25.83;17.20;;;1.60;99.90;;;;;;5014043;28;20144;-61
2021/12/11 02:40:27;;;;;;;26.27;17.50;;;1.50;99.90;;;;;;5012886;28;20399;-61
2021/12/11 02:43:25;;;;;;;25.75;16.05;;;1.40;99.90;;;;;;5015414;28;20116;-61
2021/12/11 02:45:53;;;;;;;28.95;16.88;;;1.40;99.90;;;;;;5008653;28;20115;-62
2021/12/11 02:48:29;;;;;;;26.38;16.60;;;1.30;99.90;;;;;;5017612;28;20034;-61
2021/12/11 02:51:15;;;;;;;24.90;16.52;;;1.30;99.90;;;;;;5018866;28;20396;-62
2021/12/11 02:53:47;;;;;;;25.60;15.35;;;1.30;99.90;;;;;;5018111;28;20053;-61
2021/12/11 02:56:31;;;;;;;25.17;15.88;;;1.40;99.90;;;;;;5019589;28;20350;-61
2021/12/11 02:59:02;;;;;;;27.85;15.25;;;1.20;99.90;;;;;;5020637;28;20038;-62
2021/12/11 03:01:32;;;;;;;25.40;14.80;;;1.10;99.90;;;;;;5019802;28;20036;-61
2021/12/11 03:04:10;;;;;;;20.70;13.68;;;1.10;99.90;;;;;;5019333;28;20052;-61
2021/12/11 03:06:41;;;;;;;23.63;14.75;;;1.00;99.90;;;;;;5012605;28;21937;-61
2021/12/11 03:09:10;;;;;;;22.70;15.15;;;1.10;99.90;;;;;;5017778;28;20080;-61
2021/12/11 03:11:35;;;;;;;26.40;15.13;;;1.00;99.90;;;;;;5019443;28;20045;-61
2021/12/11 03:14:12;;;;;;;23.42;15.02;;;1.10;99.90;;;;;;5018678;28;20049;-61
2021/12/11 03:16:40;;;;;;;21.42;15.15;;;1.00;99.90;;;;;;5009586;28;20501;-61
2021/12/11 03:19:09;;;;;;;24.30;15.05;;;1.00;99.90;;;;;;5015342;28;20044;-61
2021/12/11 03:21:36;;;;;;;27.17;16.90;;;1.00;99.90;;;;;;5011890;28;20653;-61
2021/12/11 03:24:03;;;;;;;24.95;15.43;;;1.30;99.90;;;;;;5013191;28;20069;-62
2021/12/11 03:26:28;;;;;;;26.35;16.33;;;1.30;99.90;;;;;;5016203;28;20034;-61
2021/12/11 03:28:55;;;;;;;28.77;18.45;;;1.30;99.90;;;;;;5018553;28;20048;-61
2021/12/11 03:31:20;;;;;;;30.85;18.38;;;1.40;99.90;;;;;;5017151;28;20185;-61
2021/12/11 03:33:51;;;;;;;34.13;20.60;;;1.70;99.90;;;;;;5016987;28;20246;-61
2021/12/11 03:36:20;;;;;;;39.30;21.52;;;1.80;99.90;;;;;;5010025;28;20092;-61
2021/12/11 03:38:52;;;;;;;40.88;22.38;;;1.90;99.90;;;;;;5010366;28;20113;-61
2021/12/11 03:41:20;;;;;;;37.95;22.65;;;2.00;99.90;;;;;;5014704;28;20413;-62
2021/12/11 03:43:46;;;;;;;35.65;22.70;;;2.10;99.90;;;;;;5011152;28;20033;-62
2021/12/11 03:46:13;;;;;;;37.47;21.80;;;2.10;99.90;;;;;;5010555;28;20056;-61
2021/12/11 03:48:44;;;;;;;36.33;21.75;;;1.80;99.90;;;;;;5015939;28;20498;-61
2021/12/11 03:51:14;;;;;;;35.40;21.45;;;1.90;99.90;;;;;;5013383;28;20056;-61
2021/12/11 03:53:40;;;;;;;35.10;21.58;;;2.10;99.90;;;;;;5015592;28;20071;-61
2021/12/11 03:56:09;;;;;;;37.45;21.88;;;2.20;99.90;;;;;;5012064;28;20037;-62
2021/12/11 03:58:37;;;;;;;59.05;23.13;;;2.20;99.90;;;;;;5014715;28;20116;-61
2021/12/11 04:01:09;;;;;;;37.13;22.17;;;1.90;99.90;;;;;;5012287;28;20155;-61
2021/12/11 04:03:38;;;;;;;57.42;22.45;;;2.10;99.90;;;;;;5018875;28;20044;-61
2021/12/11 04:06:07;;;;;;;38.83;20.98;;;2.00;99.90;;;;;;5011989;28;20066;-61
2021/12/11 04:08:40;;;;;;;34.97;21.42;;;1.80;99.90;;;;;;5009432;28;20093;-61
2021/12/11 04:11:17;;;;;;;49.33;22.98;;;1.80;99.90;;;;;;5011480;28;20516;-61
2021/12/11 04:13:45;;;;;;;34.95;21.10;;;1.80;99.90;;;;;;5009141;28;20037;-61
2021/12/11 04:16:11;;;;;;;35.10;23.02;;;1.90;99.90;;;;;;5009541;28;20052;-62
2021/12/11 04:18:38;;;;;;;36.35;22.83;;;2.10;99.90;;;;;;5013087;28;20038;-62
2021/12/11 04:21:04;;;;;;;34.78;21.88;;;2.30;99.90;;;;;;5014125;28;20128;-62
2021/12/11 04:23:30;;;;;;;37.83;22.38;;;2.40;99.90;;;;;;5015110;28;20034;-61
2021/12/11 04:25:57;;;;;;;37.30;22.38;;;2.20;99.90;;;;;;5007681;28;20129;-61
2021/12/11 04:28:26;;;;;;;35.45;21.77;;;2.10;99.90;;;;;;5019306;28;20042;-61
2021/12/11 04:31:02;;;;;;;46.75;22.23;;;1.90;99.90;;;;;;5012751;28;20053;-61
2021/12/11 04:33:28;;;;;;;46.28;23.33;;;2.00;99.90;;;;;;5017891;28;20466;-61
2021/12/11 04:35:54;;;;;;;79.72;26.35;;;2.00;99.90;;;;;;5012894;28;20038;-61
2021/12/11 04:38:20;;;;;;;61.10;27.00;;;2.00;99.90;;;;;;5008145;28;20045;-62
2021/12/11 04:40:52;;;;;;;43.42;26.27;;;2.00;99.90;;;;;;5007452;28;20410;-61
2021/12/11 04:43:22;;;;;;;42.83;26.50;;;2.10;99.90;;;;;;5012355;28;20037;-62
2021/12/11 04:45:50;;;;;;;45.53;27.55;;;2.20;99.90;;;;;;5018655;28;20592;-61
2021/12/11 04:49:00;;;;;;;43.92;26.75;;;2.20;99.90;;;;;;5015656;28;20136;-61
2021/12/11 04:52:00;;;;;;;50.58;26.95;;;2.30;99.90;;;;;;5017309;28;20038;-61
2021/12/11 04:57:12;;;;;;;54.65;28.90;;;2.30;99.90;;;;;;5007542;28;20069;-61
2021/12/11 05:03:08;;;;;;;56.47;30.85;;;2.40;99.90;;;;;;5015619;28;20288;-61
2021/12/11 05:11:06;;;;;;;63.20;34.38;;;2.40;99.90;;;;;;5001012;28;20041;-61
2021/12/11 05:13:33;;;;;;;64.57;35.53;;;2.40;99.90;;;;;;5004785;28;20033;-61
2021/12/11 05:16:04;;;;;;;64.78;35.05;;;2.40;99.90;;;;;;5009141;28;20382;-62
2021/12/11 05:18:32;;;;;;;66.32;35.08;;;2.40;99.90;;;;;;5010771;28;20033;-61
2021/12/11 05:21:02;;;;;;;67.18;35.97;;;2.40;99.90;;;;;;5007786;28;20370;-61
2021/12/11 05:23:28;;;;;;;74.15;37.08;;;2.60;99.90;;;;;;5006579;28;20037;-61
2021/12/11 05:25:55;;;;;;;71.43;37.67;;;2.60;99.90;;;;;;5015916;28;20374;-61
2021/12/11 05:28:21;;;;;;;79.75;37.47;;;2.50;99.90;;;;;;5012925;28;20026;-61
2021/12/11 05:30:49;;;;;;;72.10;37.35;;;2.30;99.90;;;;;;5012078;28;20049;-59
2021/12/11 05:33:16;;;;;;;86.50;38.83;;;2.40;99.90;;;;;;5008114;28;20271;-60
2021/12/11 05:35:43;;;;;;;75.03;39.85;;;2.50;99.90;;;;;;5015431;28;20041;-60
2021/12/11 05:38:11;;;;;;;75.93;38.88;;;2.70;99.90;;;;;;5013546;28;20379;-60
2021/12/11 05:40:40;;;;;;;84.07;41.35;;;2.70;99.90;;;;;;5014573;28;20120;-61
2021/12/11 05:43:07;;;;;;;78.20;38.80;;;2.70;99.90;;;;;;5015437;28;20044;-60
2021/12/11 05:45:33;;;;;;;81.18;38.90;;;2.70;99.90;;;;;;5012845;28;20034;-61
2021/12/11 05:48:00;;;;;;;88.55;39.50;;;2.70;99.90;;;;;;5012792;28;20042;-60
2021/12/11 05:50:32;;;;;;;90.97;40.15;;;2.50;99.90;;;;;;5010754;28;20430;-60
2021/12/11 05:52:59;;;;;;;87.73;39.10;;;2.70;99.90;;;;;;5015611;28;20121;-59
2021/12/11 05:55:27;;;;;;;90.65;42.05;;;2.80;99.90;;;;;;5017846;28;20398;-59
2021/12/11 05:57:56;;;;;;;92.55;42.00;;;2.80;99.90;;;;;;5016297;28;20068;-60
2021/12/11 06:00:26;;;;;;;89.88;40.42;;;2.70;99.90;;;;;;5015199;28;20423;-61
2021/12/11 06:02:52;;;;;;;94.47;41.78;;;3.00;99.90;;;;;;5014624;28;20520;-61
2021/12/11 06:05:18;;;;;;;99.07;41.60;;;2.80;99.90;;;;;;5013407;28;20037;-60
2021/12/11 06:07:44;;;;;;;95.20;41.03;;;2.90;99.90;;;;;;5015966;28;20047;-60
2021/12/11 06:10:14;;;;;;;96.35;40.47;;;3.00;99.90;;;;;;5011465;28;20439;-60
2021/12/11 06:12:41;;;;;;;109.07;42.80;;;2.90;99.90;;;;;;5012946;28;20041;-61
2021/12/11 06:15:08;;;;;;;106.97;43.67;;;3.00;99.90;;;;;;5011573;28;20046;-60
2021/12/11 06:17:35;;;;;;;103.18;42.95;;;3.10;99.90;;;;;;5012703;28;20042;-61
2021/12/11 06:20:03;;;;;;;105.63;42.75;;;3.10;99.90;;;;;;5011714;28;20065;-61
2021/12/11 06:22:31;;;;;;;104.05;43.13;;;3.10;99.90;;;;;;5004879;28;20034;-61
2021/12/11 06:25:04;;;;;;;113.80;44.90;;;3.10;99.90;;;;;;5015292;28;20150;-60
2021/12/11 06:27:30;;;;;;;114.93;42.92;;;3.20;99.90;;;;;;5014735;28;20505;-60
2021/12/11 06:29:56;;;;;;;121.32;44.42;;;3.30;99.90;;;;;;5011294;28;20510;-61
2021/12/11 06:32:23;;;;;;;114.57;47.03;;;3.20;99.90;;;;;;5003588;28;20042;-60
2021/12/11 06:34:50;;;;;;;112.68;44.67;;;3.20;99.90;;;;;;5010252;28;20788;-61
2021/12/11 06:37:16;;;;;;;110.45;43.03;;;3.10;99.90;;;;;;5010117;28;20042;-61
2021/12/11 06:39:42;;;;;;;113.05;44.05;;;3.20;99.90;;;;;;5011522;28;20470;-61
2021/12/11 06:42:09;;;;;;;108.65;42.53;;;3.20;99.90;;;;;;5014379;28;20167;-61
2021/12/11 06:44:36;;;;;;;109.68;41.58;;;3.10;99.90;;;;;;5013208;28;20155;-61
2021/12/11 06:47:05;;;;;;;110.00;41.05;;;3.00;99.90;;;;;;5012920;28;20076;-61
2021/12/11 06:49:33;;;;;;;107.38;41.70;;;3.10;99.90;;;;;;5016677;28;20042;-61
2021/12/11 06:52:01;;;;;;;104.82;40.22;;;3.10;99.90;;;;;;5013354;28;20624;-61
2021/12/11 06:54:27;;;;;;;90.63;37.33;;;3.00;99.90;;;;;;5018199;28;20103;-61
2021/12/11 06:56:54;;;;;;;94.50;38.60;;;2.90;99.90;;;;;;5012864;28;20037;-61
2021/12/11 06:59:20;;;;;;;97.53;38.22;;;2.80;99.90;;;;;;5017908;28;20124;-61
2021/12/11 07:01:46;;;;;;;103.60;41.88;;;2.90;99.90;;;;;;5014737;28;20124;-61
2021/12/11 07:04:12;;;;;;;102.50;40.67;;;2.90;99.90;;;;;;5018122;28;20057;-61
2021/12/11 07:06:42;;;;;;;98.80;38.20;;;2.90;99.90;;;;;;5018360;28;20495;-61
2021/12/11 07:09:10;;;;;;;93.97;38.25;;;2.90;99.90;;;;;;5010669;28;20453;-61
2021/12/11 07:11:39;;;;;;;85.05;36.00;;;2.90;99.90;;;;;;5016377;28;20045;-61
2021/12/11 07:14:06;;;;;;;102.20;39.38;;;3.00;99.90;;;;;;5019136;28;20446;-61
2021/12/11 07:16:32;;;;;;;91.63;38.58;;;3.10;99.90;;;;;;5014538;28;20026;-61
2021/12/11 07:18:57;;;;;;;101.18;39.85;;;3.10;99.90;;;;;;5016958;28;20049;-62
2021/12/11 07:21:23;;;;;;;95.85;40.80;;;3.10;99.90;;;;;;5014786;28;20065;-61
2021/12/11 07:23:49;;;;;;;106.32;40.78;;;3.00;99.90;;;;;;5019923;28;20523;-60
2021/12/11 07:26:23;;;;;;;86.65;38.72;;;3.10;99.90;;;;;;5008914;28;20132;-61
2021/12/11 07:28:55;;;;;;;93.63;38.53;;;3.10;99.90;;;;;;5014945;28;20507;-61
2021/12/11 07:31:24;;;;;;;84.07;36.92;;;3.10;99.90;;;;;;5021700;28;20079;-60
2021/12/11 07:33:50;;;;;;;80.00;34.20;;;3.00;99.90;;;;;;5015999;28;20489;-61
2021/12/11 07:36:16;;;;;;;93.90;38.75;;;3.10;99.90;;;;;;5017373;28;20103;-61
2021/12/11 07:38:42;;;;;;;95.22;39.00;;;3.10;99.90;;;;;;5011342;28;20479;-61
2021/12/11 07:41:11;;;;;;;98.13;36.67;;;3.20;99.90;;;;;;5008173;28;20119;-61
2021/12/11 07:43:39;;;;;;;92.22;39.17;;;3.20;99.90;;;;;;5014230;28;20065;-62
2021/12/11 07:46:07;;;;;;;88.45;37.38;;;3.30;99.90;;;;;;5015474;28;20432;-61
2021/12/11 07:48:33;;;;;;;94.05;38.38;;;3.20;99.90;;;;;;5012851;28;20050;-62
2021/12/11 07:50:58;;;;;;;91.03;37.25;;;3.20;99.90;;;;;;5012224;28;20049;-61
2021/12/11 07:53:24;;;;;;;85.45;36.03;;;3.30;99.90;;;;;;5014486;28;20409;-61
2021/12/11 07:55:52;;;;;;;100.75;37.22;;;3.30;99.90;;;;;;5012953;28;20461;-61
2021/12/11 07:58:19;;;;;;;95.68;38.53;;;3.40;99.90;;;;;;5012743;28;20045;-61
2021/12/11 08:00:47;;;;;;;95.93;38.05;;;3.40;99.90;;;;;;5015170;28;20422;-61
2021/12/11 08:03:15;;;;;;;100.07;40.25;;;3.50;99.90;;;;;;5013481;28;20017;-61
2021/12/11 08:05:43;;;;;;;91.88;38.58;;;3.40;99.90;;;;;;5014893;28;20033;-62
2021/12/11 08:08:10;;;;;;;111.80;41.85;;;3.50;99.90;;;;;;5013506;28;20511;-61
2021/12/11 08:10:39;;;;;;;108.93;42.70;;;3.60;99.90;;;;;;5014655;28;20399;-61
2021/12/11 08:13:06;;;;;;;104.28;40.63;;;3.60;99.90;;;;;;5015636;28;20034;-61
2021/12/11 08:15:32;;;;;;;109.13;41.22;;;3.60;99.90;;;;;;5014554;28;20041;-61
2021/12/11 08:17:58;;;;;;;108.68;39.75;;;3.60;99.90;;;;;;5016070;28;20099;-62
2021/12/11 08:20:27;;;;;;;105.90;41.55;;;3.60;99.90;;;;;;5009825;28;20038;-63
2021/12/11 08:22:53;;;;;;;107.15;40.45;;;3.60;99.90;;;;;;5027925;28;20083;-62
2021/12/11 08:25:21;;;;;;;104.97;41.30;;;3.60;99.90;;;;;;5007214;28;20465;-62
2021/12/11 08:27:47;;;;;;;109.45;42.88;;;3.70;99.90;;;;;;5016368;28;20110;-62
2021/12/11 08:30:13;;;;;;;107.38;41.42;;;3.70;99.90;;;;;;5014693;28;20038;-62
2021/12/11 08:32:40;;;;;;;112.57;44.55;;;3.80;99.90;;;;;;5009773;28;20044;-62
2021/12/11 08:35:09;;;;;;;121.95;44.67;;;3.70;99.90;;;;;;5015048;28;20188;-62
2021/12/11 08:37:36;;;;;;;110.82;43.05;;;3.70;99.90;;;;;;5015964;28;20037;-63
2021/12/11 08:40:06;;;;;;;111.35;44.03;;;3.70;99.90;;;;;;5011908;28;20159;-62
2021/12/11 08:42:32;;;;;;;114.07;41.50;;;3.50;99.90;;;;;;5015745;28;20138;-62
2021/12/11 08:45:05;;;;;;;117.68;45.35;;;3.50;99.90;;;;;;5016573;28;20120;-63
2021/12/11 08:47:32;;;;;;;;;;;3.70;99.90;;;;;;5014823;28;20033;-63
2021/12/11 08:49:57;;;;;;;120.47;42.10;;;3.70;99.90;;;;;;5011178;28;20644;-63
2021/12/11 08:52:34;;;;;;;115.63;41.42;;;3.70;99.90;;;;;;5011075;28;20106;-63
2021/12/11 08:55:02;;;;;;;113.00;43.20;;;3.90;99.90;;;;;;5014135;28;20057;-63
2021/12/11 08:57:32;;;;;;;130.38;45.67;;;3.80;99.90;;;;;;5014083;28;20029;-63
2021/12/11 09:00:17;;;;;;;124.00;44.55;;;4.00;99.90;;;;;;5011892;28;20196;-64
2021/12/11 09:02:51;;;;;;;126.75;44.08;;;4.10;99.90;;;;;;5010843;28;20532;-64
2021/12/11 09:05:45;;;;;;;126.68;43.65;;;4.20;99.90;;;;;;4997083;28;20042;-64
2021/12/11 09:08:15;;;;;;;;;;;4.30;99.90;;;;;;5011845;28;20396;-64
2021/12/11 09:11:06;;;;;;;123.25;42.45;;;4.30;99.90;;;;;;5012834;28;19968;-64
2021/12/11 09:13:47;;;;;;;134.70;45.17;;;4.20;99.90;;;;;;5008940;28;20036;-64
2021/12/11 09:16:22;;;;;;;131.23;45.00;;;4.20;99.90;;;;;;5010113;28;20026;-64
2021/12/11 09:19:05;;;;;;;133.73;45.28;;;4.30;99.90;;;;;;5013719;28;20726;-64
2021/12/11 09:21:52;;;;;;;145.88;49.40;;;4.30;99.90;;;;;;5017071;28;20038;-64
2021/12/11 09:24:30;;;;;;;136.50;47.30;;;4.40;99.90;;;;;;5009257;28;20129;-64
2021/12/11 09:27:01;;;;;;;131.55;44.17;;;4.20;99.90;;;;;;5013074;28;20386;-64
2021/12/11 09:29:32;;;;;;;122.38;44.65;;;4.30;99.90;;;;;;5017588;28;20033;-64
2021/12/11 09:32:14;;;;;;;127.55;42.75;;;4.20;99.90;;;;;;5014018;28;20034;-64
2021/12/11 09:35:08;;;;;;;99.18;31.65;;;4.10;99.90;;;;;;5015936;28;20025;-64
2021/12/11 09:37:35;;;;;;;133.65;46.22;;;4.20;99.90;;;;;;4999874;28;20069;-64
2021/12/11 09:40:09;;;;;;;131.30;43.22;;;4.30;99.90;;;;;;5016350;28;20042;-64
2021/12/11 09:42:34;;;;;;;133.48;44.67;;;4.30;99.90;;;;;;5009804;28;20472;-65
2021/12/11 09:45:17;;;;;;;127.03;43.92;;;4.20;99.90;;;;;;5015575;28;20040;-64
2021/12/11 09:47:50;;;;;;;97.57;32.85;;;4.40;99.90;;;;;;5012558;28;20041;-64
2021/12/11 09:50:23;;;;;;;126.75;42.58;;;4.40;99.90;;;;;;5009897;28;20382;-64
2021/12/11 09:52:49;;;;;;;125.40;40.13;;;4.40;99.90;;;;;;5014583;28;20038;-64
2021/12/11 09:55:23;;;;;;;125.95;41.00;;;4.40;99.90;;;;;;5017113;28;20529;-64
2021/12/11 09:57:55;;;;;;;126.68;43.53;;;4.40;99.90;;;;;;5000663;28;20528;-64
2021/12/11 10:00:56;;;;;;;115.22;41.53;;;4.50;99.90;;;;;;5008684;28;20037;-64
2021/12/11 10:03:27;;;;;;;110.28;38.75;;;4.40;99.90;;;;;;5011345;28;21874;-64
2021/12/11 10:06:14;;;;;;;117.53;42.13;;;4.30;99.90;;;;;;5018664;28;20060;-64
2021/12/11 10:08:44;;;;;;;114.53;40.17;;;4.30;99.90;;;;;;5012255;28;20112;-64
2021/12/11 10:11:20;;;;;;;125.53;41.28;;;4.30;99.90;;;;;;5009347;28;20462;-64
2021/12/11 10:13:55;;;;;;;127.00;44.92;;;4.40;99.90;;;;;;5016193;28;20047;-66
2021/12/11 10:16:26;;;;;;;118.72;41.58;;;4.60;99.90;;;;;;5009147;28;20129;-64
2021/12/11 10:18:53;;;;;;;118.53;41.70;;;4.60;99.90;;;;;;5019547;28;20041;-64
2021/12/11 10:21:29;;;;;;;121.88;42.90;;;4.60;99.90;;;;;;5014797;28;20033;-64
2021/12/11 10:23:59;;;;;;;116.65;41.35;;;4.60;99.90;;;;;;5019580;28;20037;-64
2021/12/11 10:26:26;;;;;;;106.90;38.70;;;4.50;99.90;;;;;;5018031;28;20041;-64
2021/12/11 10:28:56;;;;;;;119.47;42.35;;;4.50;99.90;;;;;;4999817;28;20045;-64
2021/12/11 10:31:29;;;;;;;120.68;42.78;;;4.60;99.90;;;;;;5014399;28;23775;-64
2021/12/11 10:33:58;;;;;;;124.07;46.78;;;4.60;99.90;;;;;;5017529;28;20100;-64
2021/12/11 10:36:27;;;;;;;121.28;44.85;;;4.70;99.90;;;;;;5012610;28;20108;-64
2021/12/11 10:38:56;;;;;;;110.32;42.33;;;4.60;99.90;;;;;;5020164;28;20041;-64
2021/12/11 10:41:22;;;;;;;107.35;42.13;;;4.60;99.90;;;;;;5017456;28;20041;-64
2021/12/11 10:43:53;;;;;;;109.28;40.10;;;4.60;99.90;;;;;;5020753;28;20053;-64
2021/12/11 10:46:22;;;;;;;109.50;41.50;;;4.70;99.90;;;;;;5019274;28;20044;-64
2021/12/11 10:48:48;;;;;;;119.30;43.33;;;4.60;99.90;;;;;;5017501;28;20034;-64
2021/12/11 10:51:22;;;;;;;112.95;44.33;;;4.70;99.90;;;;;;5015343;28;20064;-64
2021/12/11 10:53:49;;;;;;;123.30;49.03;;;4.70;99.90;;;;;;5019208;28;20033;-64
2021/12/11 10:56:20;;;;;;;113.38;45.97;;;4.80;99.90;;;;;;5019832;28;20800;-64
2021/12/11 10:58:50;;;;;;;106.13;44.40;;;4.70;99.90;;;;;;5019838;28;20582;-64
2021/12/11 11:01:33;;;;;;;103.65;41.38;;;4.60;99.90;;;;;;5010839;28;20712;-64
2021/12/11 11:04:21;;;;;;;102.10;39.95;;;4.60;99.90;;;;;;5011175;28;20504;-64
2021/12/11 11:06:48;;;;;;;101.28;41.78;;;4.70;99.90;;;;;;5010938;28;20042;-64
2021/12/11 11:09:17;;;;;;;97.55;40.53;;;4.60;99.90;;;;;;5012849;28;20044;-64
2021/12/11 11:11:44;;;;;;;103.40;40.08;;;4.60;99.90;;;;;;5014466;28;20092;-65
2021/12/11 11:14:10;;;;;;;98.13;37.08;;;4.80;99.90;;;;;;5017393;28;20660;-64
2021/12/11 11:16:40;;;;;;;104.15;39.65;;;4.80;99.90;;;;;;5016977;28;20401;-64
2021/12/11 11:19:06;;;;;;;91.53;38.38;;;4.80;99.90;;;;;;5019075;28;20085;-64
2021/12/11 11:21:41;;;;;;;96.55;38.00;;;5.00;99.90;;;;;;5018003;28;20541;-64
2021/12/11 11:24:08;;;;;;;101.65;41.17;;;4.90;99.90;;;;;;5014751;28;20046;-64
2021/12/11 11:26:37;;;;;;;103.93;40.47;;;4.90;99.90;;;;;;5011945;28;20059;-64
2021/12/11 11:29:06;;;;;;;99.20;40.58;;;4.90;99.90;;;;;;5016346;28;20536;-64
2021/12/11 11:31:37;;;;;;;85.35;35.88;;;4.90;99.90;;;;;;5015932;28;20116;-64
2021/12/11 11:34:06;;;;;;;98.60;37.30;;;4.90;99.90;;;;;;5015493;28;20041;-64
2021/12/11 11:36:34;;;;;;;97.53;37.78;;;4.90;99.90;;;;;;5020327;28;20619;-63
2021/12/11 11:39:05;;;;;;;90.60;37.00;;;4.90;99.90;;;;;;5020923;28;20051;-63
2021/12/11 11:41:37;;;;;;;93.28;35.28;;;5.00;99.90;;;;;;5015212;28;20462;-63
2021/12/11 11:44:05;;;;;;;94.18;37.65;;;5.10;99.90;;;;;;5018684;28;20051;-63
2021/12/11 11:46:32;;;;;;;98.68;37.28;;;5.10;99.90;;;;;;5015192;28;20458;-63
2021/12/11 11:49:00;;;;;;;94.95;36.35;;;5.10;99.90;;;;;;5011768;28;20452;-63
2021/12/11 11:51:36;;;;;;;85.72;36.35;;;5.20;99.90;;;;;;5015390;28;20028;-63
2021/12/11 11:54:04;;;;;;;82.18;36.75;;;5.20;99.90;;;;;;5018977;28;20037;-63
2021/12/11 11:56:34;;;;;;;91.05;36.85;;;5.30;99.90;;;;;;5015601;28;20133;-64
2021/12/11 11:59:00;;;;;;;91.85;35.92;;;5.30;99.90;;;;;;5019394;28;20841;-63
2021/12/11 12:01:31;;;;;;;83.78;35.05;;;5.40;99.90;;;;;;5008263;28;20164;-63
2021/12/11 12:03:58;;;;;;;77.55;33.58;;;5.40;99.90;;;;;;5015921;28;20045;-64
2021/12/11 12:06:30;;;;;;;86.45;36.10;;;5.30;99.90;;;;;;5018272;28;20528;-64
2021/12/11 12:08:57;;;;;;;73.50;35.10;;;5.30;99.90;;;;;;5018500;28;20132;-64
2021/12/11 12:11:25;;;;;;;93.18;39.30;;;5.30;99.90;;;;;;5011775;28;20042;-64
2021/12/11 12:13:51;;;;;;;95.70;39.80;;;5.30;99.90;;;;;;5015470;28;20699;-64
2021/12/11 12:16:18;;;;;;;92.95;38.88;;;5.30;99.90;;;;;;5015453;28;20034;-64
2021/12/11 12:18:45;;;;;;;102.60;41.85;;;5.20;99.90;;;;;;5019394;28;20171;-64
2021/12/11 12:21:14;;;;;;;97.95;43.03;;;5.20;99.90;;;;;;5017751;28;20124;-64
2021/12/11 12:23:41;;;;;;;100.25;42.63;;;5.10;99.90;;;;;;5014291;28;20049;-64
2021/12/11 12:26:12;;;;;;;98.13;41.50;;;5.10;99.90;;;;;;5014591;28;20515;-65
2021/12/11 12:28:38;;;;;;;114.93;44.45;;;5.10;99.90;;;;;;5010731;28;20041;-64
2021/12/11 12:31:09;;;;;;;102.15;44.85;;;5.00;99.90;;;;;;5011232;28;20404;-64
2021/12/11 12:33:35;;;;;;;99.82;44.30;;;5.00;99.90;;;;;;5012157;28;20565;-64
2021/12/11 12:36:02;;;;;;;93.38;40.80;;;5.00;99.90;;;;;;5012125;28;20117;-65
2021/12/11 12:38:30;;;;;;;96.18;43.30;;;5.00;99.90;;;;;;5012762;28;20065;-64
2021/12/11 12:41:19;;;;;;;105.38;44.13;;;5.00;99.90;;;;;;5013635;28;20049;-64
2021/12/11 12:46:28;;;;;;;84.03;39.42;;;5.00;99.90;;;;;;5007211;28;20604;-64
2021/12/11 12:48:54;;;;;;;82.28;40.05;;;5.00;99.90;;;;;;5009447;28;20470;-64
2021/12/11 12:51:21;;;;;;;80.55;37.85;;;5.10;99.90;;;;;;5011265;28;20745;-64
2021/12/11 12:53:48;;;;;;;72.43;35.75;;;5.10;99.90;;;;;;5014695;28;20112;-65
2021/12/11 12:56:42;;;;;;;68.63;35.88;;;5.10;99.90;;;;;;5012269;28;20037;-64
2021/12/11 12:59:14;;;;;;;70.05;34.03;;;5.30;99.90;;;;;;5007996;28;20029;-64
2021/12/11 13:01:44;;;;;;;64.35;34.00;;;5.30;99.90;;;;;;5013653;28;20037;-64
2021/12/11 13:04:12;;;;;;;61.03;32.10;;;5.30;99.90;;;;;;5017603;28;20043;-64
2021/12/11 13:06:44;;;;;;;57.95;30.73;;;5.20;99.90;;;;;;5014496;28;20471;-64
2021/12/11 13:09:12;;;;;;;62.58;32.92;;;5.10;99.90;;;;;;5014497;28;20037;-65
2021/12/11 13:11:46;;;;;;;56.67;30.17;;;5.10;99.90;;;;;;5014881;28;20078;-65